Flight Number: AVA4028 Duration: 1:15
Departure: Ha noi Noibai Intl (VVNB) at 06:30 Distance: 457.68 Nm
Arrival: Hong Kong Intl Airport (VHHH) at 07:45 Equipment: A321

Weather Information
Ha Noi, Vietnam (VVNB) 21-01N 105-48E 6M Feb 27, 2024 - 12:00 PM EST / 2024.02.27 1700 UTC
Wind: from the E (080 degrees) at 7 MPH (6 KT):0
Visibility: greater than 7 mile(s):0
Sky conditions: overcast Temperature: 55 F (13 C) Dew Point: 51 F (11 C) Relative Humidity: 87% Pressure (altimeter): 30.09 in. Hg (1019 hPa)
ob: VVNB 271700Z 08006KT 9999 OVC023 13/11 Q1019 NOSIG cycle: 17
Sunrise: 23:21 Sunset: 10:57 (UTC)

Hong Kong Inter-National Airport, Hong Kong (VHHH) 22-20N 114-11E 24M Feb 27, 2024 - 12:00 PM EST / 2024.02.27 1700 UTC
Wind: from the NNW (330 degrees) at 12 MPH (10 KT) (direction variable):0
Visibility: greater than 7 mile(s):0
Sky conditions: partly cloudy Temperature: 59 F (15 C) Dew Point: 50 F (10 C) Relative Humidity: 72% Pressure (altimeter): 30.12 in. Hg (1020 hPa)
ob: VHHH 271700Z 33010KT 310V010 9999 FEW018 SCT025 15/10 Q1020 NOSIG cycle: 17
Sunrise: 22:49 Sunset: 10:24 (UTC)

TAF:2024/02/27 18:05 TAF VHHH 271700Z 2718/2824 36010KT 9999 FEW025 SCT035 TX20/2806Z TN15/2723Z TN16/2823Z BECMG 2720/2722 06010KT

Previous Pireps for this route
Date Flightnr Aircraft Flight time Fuel used Landing rate On time
2015-04-13AVA4028A32101.329055-372No
2019-01-02AVA4028A32101.258960-171Yes
2020-02-03AVA4028A32101.3910018-244No
(pireps marked green are flown by you)

Route map